Home   Weather   Palestine   Hebron   Past weeks
Flag for Palestine

Past Weather in Hebron, West Bank, Palestine — Yesterday and Last 2 Weeks

Currently: 54 °F. Clear. (Weather station: Ben Gurion International Airport, Palestine). See more current weather

Past Weather in Hebron — Graph

°F

Hebron Temperature Yesterday

Maximum temperature yesterday: 75 °F (at 10:50 am)
Minimum temperature yesterday: 52 °F (at 4:50 am)
Average temperature yesterday: 64 °F

High & Low Weather Summary for the Past Weeks

 TemperatureHumidityPressure
High88 °F (Nov 21, 12:50 pm)94% (Nov 23, 3:20 am)30.21 "Hg (Nov 23, 3:20 am)
Low52 °F (Dec 1, 4:50 am)21% (Nov 20, 10:50 am)29.77 "Hg (Nov 28, 11:50 am)
Average67 °F64%29.98 "Hg
* Reported Nov 17 3:20 am — Dec 2 3:50 am, Hebron. Weather by CustomWeather, © 2022

Note: Actual official high and low records may vary slightly from our data, if they occured in-between our weather recording intervals... More about our weather records

Hebron Weather History for the Previous 24 Hours

Scroll right to see more
 ConditionsComfort  
Time TempWeatherWind HumidityBarometerVisibility
3:50 am
Fri, Dec 2
54 °FClear.3 mph88%30.07 "Hg10 mi
3:20 am54 °FClear.1 mph82%30.07 "Hg10 mi
2:50 am54 °FClear.3 mph88%30.07 "Hg10 mi
1:20 am55 °FClear.2 mph82%30.07 "Hg10 mi
12:50 am57 °FClear.3 mph77%30.07 "Hg10 mi
12:20 am57 °FClear.1 mph77%30.07 "Hg10 mi
11:50 pm
Thu, Dec 1
57 °FClear.2 mph77%30.07 "Hg10 mi
11:20 pm57 °FClear.1 mph77%30.07 "Hg10 mi
10:50 pm57 °FClear.2 mph77%30.07 "Hg10 mi
10:20 pm59 °FClear.3 mph72%30.07 "Hg10 mi
9:50 pm61 °FClear.3 mph68%30.07 "Hg10 mi
9:20 pm59 °FClear.1 mph72%30.07 "Hg10 mi
8:50 pm63 °FClear.3 mph64%30.07 "Hg10 mi
8:20 pm63 °FClear.3 mph68%30.07 "Hg10 mi
7:50 pm63 °FClear.1 mph68%30.07 "Hg10 mi
7:20 pm64 °FClear.1 mph60%30.07 "Hg10 mi
6:50 pm66 °FClear.3 mph60%30.07 "Hg10 mi
6:20 pm66 °FClear.3 mph60%30.07 "Hg10 mi
5:50 pm68 °FClear.2 mph56%30.04 "Hg10 mi
5:20 pm70 °FClear.3 mph50%30.04 "Hg10 mi
4:50 pm70 °FPassing clouds.6 mph50%30.04 "HgN/A
4:20 pm72 °FPassing clouds.7 mph47%30.04 "HgN/A
3:50 pm72 °FPassing clouds.8 mph44%30.04 "HgN/A
3:20 pm73 °FPassing clouds.9 mph38%30.04 "HgN/A
2:50 pm73 °FPassing clouds.10 mph38%30.04 "HgN/A
2:20 pm73 °FPassing clouds.10 mph33%30.04 "HgN/A
1:50 pm75 °FPassing clouds.8 mph34%30.04 "HgN/A
1:20 pm75 °FPassing clouds.8 mph31%30.04 "HgN/A
12:50 pm75 °FPassing clouds.9 mph31%30.04 "HgN/A
12:20 pm75 °FSunny.10 mph34%30.04 "Hg10 mi
11:50 am75 °FSunny.5 mph29%30.04 "Hg10 mi
11:20 am75 °FSunny.6 mph29%30.04 "Hg10 mi
10:50 am75 °FSunny.3 mph34%30.07 "Hg10 mi
10:20 am73 °FSunny.1 mph38%30.07 "Hg10 mi
9:50 am73 °FSunny.1 mph36%30.09 "Hg10 mi
9:20 am68 °FSunny.2 mph46%30.09 "Hg10 mi
8:50 am66 °FSunny.1 mph52%30.09 "Hg10 mi
8:20 am61 °FSunny.2 mph63%30.09 "Hg10 mi
7:50 am57 °FSunny.1 mph77%30.09 "Hg10 mi
7:20 am54 °FSunny.3 mph82%30.09 "Hg10 mi
6:50 am54 °FSunny.3 mph82%30.07 "Hg10 mi
6:20 am54 °FClear.2 mph82%30.07 "Hg10 mi
5:50 am54 °FClear.2 mph82%30.07 "Hg10 mi
5:20 am52 °FClear.2 mph88%30.07 "Hg10 mi
Weather by CustomWeather, © 2022

See weather overview